sensor_id;sensor_type;location;lat;lon;timestamp;P1;durP1;ratioP1;P2;durP2;ratioP2
14923;SDS011;7554;43.600;1.480;2022-12-26T00:00:44;24.67;;;9.53;;
14923;SDS011;7554;43.600;1.480;2022-12-26T00:03:12;23.60;;;9.50;;
14923;SDS011;7554;43.600;1.480;2022-12-26T00:05:40;23.03;;;9.90;;
14923;SDS011;7554;43.600;1.480;2022-12-26T00:08:08;17.17;;;8.23;;
14923;SDS011;7554;43.600;1.480;2022-12-26T00:10:35;20.00;;;10.10;;
14923;SDS011;7554;43.600;1.480;2022-12-26T00:13:03;24.07;;;10.27;;
14923;SDS011;7554;43.600;1.480;2022-12-26T00:15:31;20.57;;;10.03;;
14923;SDS011;7554;43.600;1.480;2022-12-26T00:18:01;20.53;;;9.33;;
14923;SDS011;7554;43.600;1.480;2022-12-26T00:20:29;23.50;;;9.53;;
14923;SDS011;7554;43.600;1.480;2022-12-26T00:22:58;23.20;;;10.20;;
14923;SDS011;7554;43.600;1.480;2022-12-26T00:25:26;20.00;;;9.80;;
14923;SDS011;7554;43.600;1.480;2022-12-26T00:27:54;22.80;;;10.50;;
14923;SDS011;7554;43.600;1.480;2022-12-26T00:30:21;24.73;;;10.77;;
14923;SDS011;7554;43.600;1.480;2022-12-26T00:32:49;19.43;;;9.67;;
14923;SDS011;7554;43.600;1.480;2022-12-26T00:35:17;21.93;;;9.97;;
14923;SDS011;7554;43.600;1.480;2022-12-26T00:37:45;35.33;;;18.53;;
14923;SDS011;7554;43.600;1.480;2022-12-26T00:40:14;21.43;;;10.00;;
14923;SDS011;7554;43.600;1.480;2022-12-26T00:42:43;23.80;;;10.47;;
14923;SDS011;7554;43.600;1.480;2022-12-26T00:45:10;22.23;;;10.27;;
14923;SDS011;7554;43.600;1.480;2022-12-26T00:47:38;20.83;;;10.07;;
14923;SDS011;7554;43.600;1.480;2022-12-26T00:50:06;21.80;;;10.33;;
14923;SDS011;7554;43.600;1.480;2022-12-26T00:52:33;21.50;;;10.03;;
14923;SDS011;7554;43.600;1.480;2022-12-26T00:55:01;21.43;;;10.97;;
14923;SDS011;7554;43.600;1.480;2022-12-26T00:57:30;25.07;;;11.10;;
14923;SDS011;7554;43.600;1.480;2022-12-26T00:59:58;20.37;;;9.47;;
14923;SDS011;7554;43.600;1.480;2022-12-26T01:02:25;18.23;;;10.93;;
14923;SDS011;7554;43.600;1.480;2022-12-26T01:05:05;26.77;;;11.30;;
14923;SDS011;7554;43.600;1.480;2022-12-26T01:07:34;18.53;;;10.13;;
14923;SDS011;7554;43.600;1.480;2022-12-26T01:10:02;21.87;;;10.77;;
14923;SDS011;7554;43.600;1.480;2022-12-26T01:12:31;29.10;;;11.37;;
14923;SDS011;7554;43.600;1.480;2022-12-26T01:14:59;20.90;;;10.57;;
14923;SDS011;7554;43.600;1.480;2022-12-26T01:17:27;28.33;;;11.27;;
14923;SDS011;7554;43.600;1.480;2022-12-26T01:19:55;24.53;;;10.03;;
14923;SDS011;7554;43.600;1.480;2022-12-26T01:22:25;26.53;;;10.57;;
14923;SDS011;7554;43.600;1.480;2022-12-26T01:24:56;22.37;;;10.60;;
14923;SDS011;7554;43.600;1.480;2022-12-26T01:27:24;20.93;;;10.27;;
14923;SDS011;7554;43.600;1.480;2022-12-26T01:29:54;21.93;;;9.83;;
14923;SDS011;7554;43.600;1.480;2022-12-26T01:32:21;18.60;;;9.83;;
14923;SDS011;7554;43.600;1.480;2022-12-26T01:34:49;25.00;;;11.10;;
14923;SDS011;7554;43.600;1.480;2022-12-26T01:37:19;26.87;;;10.83;;
14923;SDS011;7554;43.600;1.480;2022-12-26T01:39:47;25.00;;;9.83;;
14923;SDS011;7554;43.600;1.480;2022-12-26T01:42:16;27.03;;;10.50;;
14923;SDS011;7554;43.600;1.480;2022-12-26T01:47:47;25.23;;;10.80;;
14923;SDS011;7554;43.600;1.480;2022-12-26T01:50:22;18.40;;;9.70;;
14923;SDS011;7554;43.600;1.480;2022-12-26T01:53:01;24.23;;;10.53;;
14923;SDS011;7554;43.600;1.480;2022-12-26T01:55:32;18.40;;;9.67;;
14923;SDS011;7554;43.600;1.480;2022-12-26T01:58:00;21.13;;;10.73;;
14923;SDS011;7554;43.600;1.480;2022-12-26T02:00:32;21.53;;;9.63;;
14923;SDS011;7554;43.600;1.480;2022-12-26T02:03:03;21.33;;;9.83;;
14923;SDS011;7554;43.600;1.480;2022-12-26T02:05:53;26.50;;;9.43;;
14923;SDS011;7554;43.600;1.480;2022-12-26T02:08:24;21.40;;;10.10;;
14923;SDS011;7554;43.600;1.480;2022-12-26T02:10:55;21.17;;;9.10;;
14923;SDS011;7554;43.600;1.480;2022-12-26T02:13:29;26.33;;;10.30;;
14923;SDS011;7554;43.600;1.480;2022-12-26T02:15:58;27.60;;;11.07;;
14923;SDS011;7554;43.600;1.480;2022-12-26T02:18:27;25.07;;;10.90;;
14923;SDS011;7554;43.600;1.480;2022-12-26T02:20:57;30.00;;;10.97;;
14923;SDS011;7554;43.600;1.480;2022-12-26T02:23:51;30.43;;;11.87;;
14923;SDS011;7554;43.600;1.480;2022-12-26T02:27:04;24.03;;;9.67;;
14923;SDS011;7554;43.600;1.480;2022-12-26T02:29:51;22.70;;;10.87;;
14923;SDS011;7554;43.600;1.480;2022-12-26T02:32:36;29.00;;;11.20;;
14923;SDS011;7554;43.600;1.480;2022-12-26T02:35:34;28.20;;;10.67;;
14923;SDS011;7554;43.600;1.480;2022-12-26T02:38:14;22.77;;;11.67;;
14923;SDS011;7554;43.600;1.480;2022-12-26T02:40:52;23.27;;;11.60;;
14923;SDS011;7554;43.600;1.480;2022-12-26T02:43:31;21.13;;;11.53;;
14923;SDS011;7554;43.600;1.480;2022-12-26T02:46:09;28.60;;;12.57;;
14923;SDS011;7554;43.600;1.480;2022-12-26T02:49:04;27.80;;;12.10;;
14923;SDS011;7554;43.600;1.480;2022-12-26T02:51:43;26.57;;;12.27;;
14923;SDS011;7554;43.600;1.480;2022-12-26T02:54:37;22.63;;;10.83;;
14923;SDS011;7554;43.600;1.480;2022-12-26T02:57:28;25.53;;;11.73;;
14923;SDS011;7554;43.600;1.480;2022-12-26T03:00:18;24.73;;;12.43;;
14923;SDS011;7554;43.600;1.480;2022-12-26T03:03:04;23.57;;;12.67;;
14923;SDS011;7554;43.600;1.480;2022-12-26T03:05:55;19.80;;;11.23;;
14923;SDS011;7554;43.600;1.480;2022-12-26T03:08:44;23.47;;;9.23;;
14923;SDS011;7554;43.600;1.480;2022-12-26T03:11:35;28.00;;;11.93;;
14923;SDS011;7554;43.600;1.480;2022-12-26T03:14:37;21.57;;;10.93;;
14923;SDS011;7554;43.600;1.480;2022-12-26T03:17:11;24.30;;;12.43;;
14923;SDS011;7554;43.600;1.480;2022-12-26T03:19:45;19.60;;;11.77;;
14923;SDS011;7554;43.600;1.480;2022-12-26T03:22:27;26.13;;;10.97;;
14923;SDS011;7554;43.600;1.480;2022-12-26T03:24:59;28.17;;;12.77;;
14923;SDS011;7554;43.600;1.480;2022-12-26T03:27:48;33.67;;;12.87;;
14923;SDS011;7554;43.600;1.480;2022-12-26T03:30:15;22.27;;;10.83;;
14923;SDS011;7554;43.600;1.480;2022-12-26T03:33:01;20.17;;;11.13;;
14923;SDS011;7554;43.600;1.480;2022-12-26T03:35:29;24.70;;;12.70;;
14923;SDS011;7554;43.600;1.480;2022-12-26T03:38:00;27.17;;;12.70;;
14923;SDS011;7554;43.600;1.480;2022-12-26T03:40:39;24.33;;;12.50;;
14923;SDS011;7554;43.600;1.480;2022-12-26T03:43:39;27.50;;;12.53;;
14923;SDS011;7554;43.600;1.480;2022-12-26T03:46:34;22.07;;;11.07;;
14923;SDS011;7554;43.600;1.480;2022-12-26T03:49:26;23.83;;;12.70;;
14923;SDS011;7554;43.600;1.480;2022-12-26T03:52:14;20.07;;;11.30;;
14923;SDS011;7554;43.600;1.480;2022-12-26T03:55:05;27.97;;;11.70;;
14923;SDS011;7554;43.600;1.480;2022-12-26T03:57:57;25.80;;;12.17;;
14923;SDS011;7554;43.600;1.480;2022-12-26T04:00:45;33.93;;;12.07;;
14923;SDS011;7554;43.600;1.480;2022-12-26T04:03:33;24.80;;;8.67;;
14923;SDS011;7554;43.600;1.480;2022-12-26T04:06:23;30.03;;;13.93;;
14923;SDS011;7554;43.600;1.480;2022-12-26T04:09:11;28.17;;;13.43;;
14923;SDS011;7554;43.600;1.480;2022-12-26T04:12:01;25.93;;;13.60;;
14923;SDS011;7554;43.600;1.480;2022-12-26T04:14:47;28.90;;;13.20;;
14923;SDS011;7554;43.600;1.480;2022-12-26T04:17:37;28.77;;;12.73;;
14923;SDS011;7554;43.600;1.480;2022-12-26T04:20:39;25.87;;;11.50;;
14923;SDS011;7554;43.600;1.480;2022-12-26T04:23:12;25.40;;;12.43;;
14923;SDS011;7554;43.600;1.480;2022-12-26T04:26:04;23.57;;;12.90;;
14923;SDS011;7554;43.600;1.480;2022-12-26T04:28:52;26.80;;;13.50;;
14923;SDS011;7554;43.600;1.480;2022-12-26T04:31:38;27.30;;;14.33;;
14923;SDS011;7554;43.600;1.480;2022-12-26T04:34:27;28.50;;;13.77;;
14923;SDS011;7554;43.600;1.480;2022-12-26T04:37:20;27.63;;;13.33;;
14923;SDS011;7554;43.600;1.480;2022-12-26T04:40:09;29.07;;;13.70;;
14923;SDS011;7554;43.600;1.480;2022-12-26T04:43:00;37.03;;;13.93;;
14923;SDS011;7554;43.600;1.480;2022-12-26T04:45:48;27.50;;;14.87;;
14923;SDS011;7554;43.600;1.480;2022-12-26T04:48:16;31.00;;;13.83;;
14923;SDS011;7554;43.600;1.480;2022-12-26T04:51:00;29.90;;;14.00;;
14923;SDS011;7554;43.600;1.480;2022-12-26T04:53:28;27.47;;;14.30;;
14923;SDS011;7554;43.600;1.480;2022-12-26T04:55:55;28.93;;;14.30;;
14923;SDS011;7554;43.600;1.480;2022-12-26T04:58:23;25.00;;;12.57;;
14923;SDS011;7554;43.600;1.480;2022-12-26T05:00:53;30.07;;;12.90;;
14923;SDS011;7554;43.600;1.480;2022-12-26T05:03:41;31.23;;;14.47;;
14923;SDS011;7554;43.600;1.480;2022-12-26T05:06:25;37.30;;;14.47;;
14923;SDS011;7554;43.600;1.480;2022-12-26T05:09:10;31.73;;;14.07;;
14923;SDS011;7554;43.600;1.480;2022-12-26T05:11:57;27.53;;;15.17;;
14923;SDS011;7554;43.600;1.480;2022-12-26T05:14:24;33.47;;;14.53;;
14923;SDS011;7554;43.600;1.480;2022-12-26T05:16:54;36.20;;;14.50;;
14923;SDS011;7554;43.600;1.480;2022-12-26T05:19:39;25.53;;;13.73;;
14923;SDS011;7554;43.600;1.480;2022-12-26T05:22:32;28.97;;;13.60;;
14923;SDS011;7554;43.600;1.480;2022-12-26T05:25:20;30.63;;;12.80;;
14923;SDS011;7554;43.600;1.480;2022-12-26T05:28:07;28.27;;;13.03;;
14923;SDS011;7554;43.600;1.480;2022-12-26T05:30:52;33.23;;;14.70;;
14923;SDS011;7554;43.600;1.480;2022-12-26T05:33:21;23.40;;;12.33;;
14923;SDS011;7554;43.600;1.480;2022-12-26T05:36:06;31.73;;;12.87;;
14923;SDS011;7554;43.600;1.480;2022-12-26T05:38:34;24.03;;;13.07;;
14923;SDS011;7554;43.600;1.480;2022-12-26T05:41:02;25.93;;;14.50;;
14923;SDS011;7554;43.600;1.480;2022-12-26T05:43:30;26.60;;;13.97;;
14923;SDS011;7554;43.600;1.480;2022-12-26T05:45:57;28.17;;;14.30;;
14923;SDS011;7554;43.600;1.480;2022-12-26T05:48:26;26.33;;;14.40;;
14923;SDS011;7554;43.600;1.480;2022-12-26T05:50:56;34.17;;;14.87;;
14923;SDS011;7554;43.600;1.480;2022-12-26T05:53:24;27.37;;;14.57;;
14923;SDS011;7554;43.600;1.480;2022-12-26T05:55:52;35.70;;;15.77;;
14923;SDS011;7554;43.600;1.480;2022-12-26T05:58:20;34.30;;;16.83;;
14923;SDS011;7554;43.600;1.480;2022-12-26T06:00:47;30.73;;;16.57;;
14923;SDS011;7554;43.600;1.480;2022-12-26T06:03:15;29.67;;;16.33;;
14923;SDS011;7554;43.600;1.480;2022-12-26T06:05:44;37.50;;;16.87;;
14923;SDS011;7554;43.600;1.480;2022-12-26T06:08:11;32.17;;;17.10;;
14923;SDS011;7554;43.600;1.480;2022-12-26T06:10:38;40.77;;;17.87;;
14923;SDS011;7554;43.600;1.480;2022-12-26T06:13:06;35.90;;;17.63;;
14923;SDS011;7554;43.600;1.480;2022-12-26T06:15:33;43.17;;;19.67;;
14923;SDS011;7554;43.600;1.480;2022-12-26T06:18:03;35.40;;;18.50;;
14923;SDS011;7554;43.600;1.480;2022-12-26T06:20:31;38.10;;;18.90;;
14923;SDS011;7554;43.600;1.480;2022-12-26T06:23:00;38.47;;;17.37;;
14923;SDS011;7554;43.600;1.480;2022-12-26T06:25:27;33.53;;;16.87;;
14923;SDS011;7554;43.600;1.480;2022-12-26T06:27:54;31.67;;;16.07;;
14923;SDS011;7554;43.600;1.480;2022-12-26T06:30:22;25.23;;;13.80;;
14923;SDS011;7554;43.600;1.480;2022-12-26T06:32:49;28.53;;;16.40;;
14923;SDS011;7554;43.600;1.480;2022-12-26T06:35:17;35.93;;;15.43;;
14923;SDS011;7554;43.600;1.480;2022-12-26T06:37:44;33.27;;;16.17;;
14923;SDS011;7554;43.600;1.480;2022-12-26T06:40:13;36.10;;;15.60;;
14923;SDS011;7554;43.600;1.480;2022-12-26T06:42:40;31.63;;;14.70;;
14923;SDS011;7554;43.600;1.480;2022-12-26T06:45:08;27.07;;;15.37;;
14923;SDS011;7554;43.600;1.480;2022-12-26T06:47:36;32.63;;;15.33;;
14923;SDS011;7554;43.600;1.480;2022-12-26T06:50:04;31.70;;;16.20;;
14923;SDS011;7554;43.600;1.480;2022-12-26T06:52:32;34.97;;;15.43;;
14923;SDS011;7554;43.600;1.480;2022-12-26T06:55:00;34.50;;;16.30;;
14923;SDS011;7554;43.600;1.480;2022-12-26T06:57:29;28.63;;;15.20;;
14923;SDS011;7554;43.600;1.480;2022-12-26T06:59:56;34.63;;;15.77;;
14923;SDS011;7554;43.600;1.480;2022-12-26T07:02:23;29.53;;;15.10;;
14923;SDS011;7554;43.600;1.480;2022-12-26T07:04:51;28.17;;;13.70;;
14923;SDS011;7554;43.600;1.480;2022-12-26T07:07:18;31.77;;;14.57;;
14923;SDS011;7554;43.600;1.480;2022-12-26T07:09:46;33.93;;;15.80;;
14923;SDS011;7554;43.600;1.480;2022-12-26T07:12:13;37.10;;;16.00;;
14923;SDS011;7554;43.600;1.480;2022-12-26T07:14:46;34.30;;;14.97;;
14923;SDS011;7554;43.600;1.480;2022-12-26T07:17:13;28.83;;;14.43;;
14923;SDS011;7554;43.600;1.480;2022-12-26T07:19:41;29.57;;;15.67;;
14923;SDS011;7554;43.600;1.480;2022-12-26T07:22:08;31.67;;;14.17;;
14923;SDS011;7554;43.600;1.480;2022-12-26T07:24:36;32.80;;;15.10;;
14923;SDS011;7554;43.600;1.480;2022-12-26T07:27:03;31.43;;;15.47;;
14923;SDS011;7554;43.600;1.480;2022-12-26T07:29:31;32.87;;;14.27;;
14923;SDS011;7554;43.600;1.480;2022-12-26T07:31:59;30.50;;;15.27;;
14923;SDS011;7554;43.600;1.480;2022-12-26T07:34:27;33.07;;;14.57;;
14923;SDS011;7554;43.600;1.480;2022-12-26T07:36:55;28.40;;;14.63;;
14923;SDS011;7554;43.600;1.480;2022-12-26T07:39:22;31.37;;;14.10;;
14923;SDS011;7554;43.600;1.480;2022-12-26T07:41:50;29.70;;;12.93;;
14923;SDS011;7554;43.600;1.480;2022-12-26T07:44:23;32.83;;;13.57;;
14923;SDS011;7554;43.600;1.480;2022-12-26T07:46:51;26.27;;;13.87;;
14923;SDS011;7554;43.600;1.480;2022-12-26T07:49:20;29.73;;;14.57;;
14923;SDS011;7554;43.600;1.480;2022-12-26T07:51:47;32.57;;;14.93;;
14923;SDS011;7554;43.600;1.480;2022-12-26T07:54:16;38.33;;;15.20;;
14923;SDS011;7554;43.600;1.480;2022-12-26T07:56:43;31.23;;;14.70;;
14923;SDS011;7554;43.600;1.480;2022-12-26T07:59:12;33.90;;;14.07;;
14923;SDS011;7554;43.600;1.480;2022-12-26T08:01:40;40.27;;;15.53;;
14923;SDS011;7554;43.600;1.480;2022-12-26T08:04:08;30.67;;;14.87;;
14923;SDS011;7554;43.600;1.480;2022-12-26T08:06:37;28.53;;;13.27;;
14923;SDS011;7554;43.600;1.480;2022-12-26T08:09:04;28.73;;;13.67;;
14923;SDS011;7554;43.600;1.480;2022-12-26T08:11:33;25.50;;;12.97;;
14923;SDS011;7554;43.600;1.480;2022-12-26T08:14:01;16.83;;;8.77;;
14923;SDS011;7554;43.600;1.480;2022-12-26T08:16:28;25.93;;;12.73;;
14923;SDS011;7554;43.600;1.480;2022-12-26T08:18:56;25.90;;;13.63;;
14923;SDS011;7554;43.600;1.480;2022-12-26T08:21:23;25.47;;;13.37;;
14923;SDS011;7554;43.600;1.480;2022-12-26T08:23:52;27.30;;;13.57;;
14923;SDS011;7554;43.600;1.480;2022-12-26T08:26:20;23.70;;;13.33;;
14923;SDS011;7554;43.600;1.480;2022-12-26T08:28:48;26.10;;;13.30;;
14923;SDS011;7554;43.600;1.480;2022-12-26T08:31:16;26.63;;;12.87;;
14923;SDS011;7554;43.600;1.480;2022-12-26T08:33:45;24.83;;;11.53;;
14923;SDS011;7554;43.600;1.480;2022-12-26T08:36:13;24.23;;;11.97;;
14923;SDS011;7554;43.600;1.480;2022-12-26T08:38:43;20.23;;;11.73;;
14923;SDS011;7554;43.600;1.480;2022-12-26T08:41:12;25.60;;;12.80;;
14923;SDS011;7554;43.600;1.480;2022-12-26T08:43:41;25.37;;;12.67;;
14923;SDS011;7554;43.600;1.480;2022-12-26T08:46:09;22.77;;;12.67;;
14923;SDS011;7554;43.600;1.480;2022-12-26T08:48:38;24.27;;;12.97;;
14923;SDS011;7554;43.600;1.480;2022-12-26T08:51:06;23.87;;;12.10;;
14923;SDS011;7554;43.600;1.480;2022-12-26T08:53:35;27.07;;;11.20;;
14923;SDS011;7554;43.600;1.480;2022-12-26T08:56:03;21.97;;;12.23;;
14923;SDS011;7554;43.600;1.480;2022-12-26T08:58:34;18.70;;;13.17;;
14923;SDS011;7554;43.600;1.480;2022-12-26T09:01:05;26.70;;;15.23;;
14923;SDS011;7554;43.600;1.480;2022-12-26T09:03:33;25.60;;;15.33;;
14923;SDS011;7554;43.600;1.480;2022-12-26T09:06:01;22.10;;;13.87;;
14923;SDS011;7554;43.600;1.480;2022-12-26T09:08:28;23.97;;;13.40;;
14923;SDS011;7554;43.600;1.480;2022-12-26T09:11:00;24.30;;;13.27;;
14923;SDS011;7554;43.600;1.480;2022-12-26T09:13:28;25.17;;;14.13;;
14923;SDS011;7554;43.600;1.480;2022-12-26T09:16:03;20.57;;;12.50;;
14923;SDS011;7554;43.600;1.480;2022-12-26T09:18:32;23.17;;;13.27;;
14923;SDS011;7554;43.600;1.480;2022-12-26T09:20:59;22.90;;;12.40;;
14923;SDS011;7554;43.600;1.480;2022-12-26T09:23:27;23.07;;;13.63;;
14923;SDS011;7554;43.600;1.480;2022-12-26T09:25:55;23.80;;;12.47;;
14923;SDS011;7554;43.600;1.480;2022-12-26T09:28:28;22.60;;;12.63;;
14923;SDS011;7554;43.600;1.480;2022-12-26T09:30:58;25.53;;;12.07;;
14923;SDS011;7554;43.600;1.480;2022-12-26T09:33:27;22.00;;;12.83;;
14923;SDS011;7554;43.600;1.480;2022-12-26T09:35:55;26.40;;;13.73;;
14923;SDS011;7554;43.600;1.480;2022-12-26T09:38:22;30.20;;;14.50;;
14923;SDS011;7554;43.600;1.480;2022-12-26T09:40:53;23.50;;;13.73;;
14923;SDS011;7554;43.600;1.480;2022-12-26T09:43:32;18.83;;;12.57;;
14923;SDS011;7554;43.600;1.480;2022-12-26T09:46:12;23.47;;;12.90;;
14923;SDS011;7554;43.600;1.480;2022-12-26T09:48:50;24.27;;;12.63;;
14923;SDS011;7554;43.600;1.480;2022-12-26T09:51:23;21.20;;;12.63;;
14923;SDS011;7554;43.600;1.480;2022-12-26T09:53:52;22.13;;;12.87;;
14923;SDS011;7554;43.600;1.480;2022-12-26T09:56:21;22.43;;;12.73;;
14923;SDS011;7554;43.600;1.480;2022-12-26T09:58:51;30.07;;;15.67;;
14923;SDS011;7554;43.600;1.480;2022-12-26T10:01:22;23.80;;;13.73;;
14923;SDS011;7554;43.600;1.480;2022-12-26T10:03:54;21.50;;;12.70;;
14923;SDS011;7554;43.600;1.480;2022-12-26T10:06:23;19.83;;;13.07;;
14923;SDS011;7554;43.600;1.480;2022-12-26T10:09:03;26.00;;;13.67;;
14923;SDS011;7554;43.600;1.480;2022-12-26T10:14:43;27.27;;;13.10;;
14923;SDS011;7554;43.600;1.480;2022-12-26T10:17:18;27.73;;;12.57;;
14923;SDS011;7554;43.600;1.480;2022-12-26T10:19:59;18.97;;;11.67;;
14923;SDS011;7554;43.600;1.480;2022-12-26T10:22:49;16.77;;;10.53;;
14923;SDS011;7554;43.600;1.480;2022-12-26T10:25:31;26.47;;;11.33;;
14923;SDS011;7554;43.600;1.480;2022-12-26T10:28:07;19.63;;;10.77;;
14923;SDS011;7554;43.600;1.480;2022-12-26T10:30:42;15.30;;;9.67;;
14923;SDS011;7554;43.600;1.480;2022-12-26T10:33:12;47.03;;;16.57;;
14923;SDS011;7554;43.600;1.480;2022-12-26T10:35:45;19.53;;;9.83;;
14923;SDS011;7554;43.600;1.480;2022-12-26T10:38:15;16.97;;;8.40;;
14923;SDS011;7554;43.600;1.480;2022-12-26T10:40:50;14.07;;;8.13;;
14923;SDS011;7554;43.600;1.480;2022-12-26T10:43:23;16.83;;;8.27;;
14923;SDS011;7554;43.600;1.480;2022-12-26T10:46:00;14.70;;;7.60;;
14923;SDS011;7554;43.600;1.480;2022-12-26T10:48:54;15.00;;;7.30;;
14923;SDS011;7554;43.600;1.480;2022-12-26T10:51:24;11.97;;;7.33;;
14923;SDS011;7554;43.600;1.480;2022-12-26T10:53:52;15.73;;;7.83;;
14923;SDS011;7554;43.600;1.480;2022-12-26T10:56:20;17.37;;;7.17;;
14923;SDS011;7554;43.600;1.480;2022-12-26T10:58:57;17.13;;;7.50;;
14923;SDS011;7554;43.600;1.480;2022-12-26T11:01:33;16.27;;;6.90;;
14923;SDS011;7554;43.600;1.480;2022-12-26T11:04:04;13.33;;;6.67;;
14923;SDS011;7554;43.600;1.480;2022-12-26T11:06:35;14.23;;;6.77;;
14923;SDS011;7554;43.600;1.480;2022-12-26T11:09:06;14.33;;;5.93;;
14923;SDS011;7554;43.600;1.480;2022-12-26T11:11:47;17.40;;;6.17;;
14923;SDS011;7554;43.600;1.480;2022-12-26T11:14:28;17.10;;;7.57;;
14923;SDS011;7554;43.600;1.480;2022-12-26T11:16:59;11.27;;;5.23;;
14923;SDS011;7554;43.600;1.480;2022-12-26T11:19:30;11.20;;;5.30;;
14923;SDS011;7554;43.600;1.480;2022-12-26T11:25:01;12.87;;;5.67;;
14923;SDS011;7554;43.600;1.480;2022-12-26T11:27:37;13.80;;;6.10;;
14923;SDS011;7554;43.600;1.480;2022-12-26T11:33:09;10.30;;;5.50;;
14923;SDS011;7554;43.600;1.480;2022-12-26T11:35:46;10.17;;;6.17;;
14923;SDS011;7554;43.600;1.480;2022-12-26T11:38:20;13.57;;;6.20;;
14923;SDS011;7554;43.600;1.480;2022-12-26T11:41:00;15.80;;;6.30;;
14923;SDS011;7554;43.600;1.480;2022-12-26T11:43:52;12.30;;;5.97;;
14923;SDS011;7554;43.600;1.480;2022-12-26T11:46:21;11.03;;;5.83;;
14923;SDS011;7554;43.600;1.480;2022-12-26T11:48:59;11.83;;;5.83;;
14923;SDS011;7554;43.600;1.480;2022-12-26T11:51:34;11.00;;;5.17;;
14923;SDS011;7554;43.600;1.480;2022-12-26T11:56:59;11.43;;;5.77;;
14923;SDS011;7554;43.600;1.480;2022-12-26T11:59:33;13.07;;;5.10;;
14923;SDS011;7554;43.600;1.480;2022-12-26T12:04:50;12.87;;;4.93;;
14923;SDS011;7554;43.600;1.480;2022-12-26T12:07:23;16.73;;;5.13;;
14923;SDS011;7554;43.600;1.480;2022-12-26T12:10:22;9.50;;;5.40;;
14923;SDS011;7554;43.600;1.480;2022-12-26T12:13:14;13.87;;;5.40;;
14923;SDS011;7554;43.600;1.480;2022-12-26T12:15:51;10.30;;;5.27;;
14923;SDS011;7554;43.600;1.480;2022-12-26T12:18:28;11.87;;;4.93;;
14923;SDS011;7554;43.600;1.480;2022-12-26T12:21:03;11.87;;;5.00;;
14923;SDS011;7554;43.600;1.480;2022-12-26T12:23:51;10.17;;;5.60;;
14923;SDS011;7554;43.600;1.480;2022-12-26T12:26:32;10.90;;;5.37;;
14923;SDS011;7554;43.600;1.480;2022-12-26T12:29:09;12.87;;;5.33;;
14923;SDS011;7554;43.600;1.480;2022-12-26T12:31:56;12.13;;;5.10;;
14923;SDS011;7554;43.600;1.480;2022-12-26T12:34:36;13.87;;;5.13;;
14923;SDS011;7554;43.600;1.480;2022-12-26T12:37:22;10.80;;;5.27;;
14923;SDS011;7554;43.600;1.480;2022-12-26T12:39:58;12.53;;;5.80;;
14923;SDS011;7554;43.600;1.480;2022-12-26T12:42:35;13.00;;;5.57;;
14923;SDS011;7554;43.600;1.480;2022-12-26T12:45:19;11.97;;;5.40;;
14923;SDS011;7554;43.600;1.480;2022-12-26T12:47:54;12.23;;;6.10;;
14923;SDS011;7554;43.600;1.480;2022-12-26T12:50:38;15.00;;;5.50;;
14923;SDS011;7554;43.600;1.480;2022-12-26T12:53:17;9.40;;;4.93;;
14923;SDS011;7554;43.600;1.480;2022-12-26T12:56:03;10.33;;;4.60;;
14923;SDS011;7554;43.600;1.480;2022-12-26T12:58:43;12.60;;;4.80;;
14923;SDS011;7554;43.600;1.480;2022-12-26T13:01:18;11.40;;;4.53;;
14923;SDS011;7554;43.600;1.480;2022-12-26T13:03:48;11.73;;;4.13;;
14923;SDS011;7554;43.600;1.480;2022-12-26T13:06:23;12.20;;;5.63;;
14923;SDS011;7554;43.600;1.480;2022-12-26T13:08:54;9.83;;;4.63;;
14923;SDS011;7554;43.600;1.480;2022-12-26T13:11:27;13.63;;;4.20;;
14923;SDS011;7554;43.600;1.480;2022-12-26T13:13:59;9.80;;;4.20;;
14923;SDS011;7554;43.600;1.480;2022-12-26T13:16:31;8.83;;;4.00;;
14923;SDS011;7554;43.600;1.480;2022-12-26T13:21:53;12.17;;;4.83;;
14923;SDS011;7554;43.600;1.480;2022-12-26T13:24:27;10.87;;;4.90;;
14923;SDS011;7554;43.600;1.480;2022-12-26T13:26:59;10.33;;;4.57;;
14923;SDS011;7554;43.600;1.480;2022-12-26T13:29:34;12.80;;;4.47;;
14923;SDS011;7554;43.600;1.480;2022-12-26T13:32:04;10.07;;;4.00;;
14923;SDS011;7554;43.600;1.480;2022-12-26T13:34:42;10.47;;;4.30;;
14923;SDS011;7554;43.600;1.480;2022-12-26T13:40:26;9.93;;;4.67;;
14923;SDS011;7554;43.600;1.480;2022-12-26T13:42:58;12.77;;;5.40;;
14923;SDS011;7554;43.600;1.480;2022-12-26T13:45:50;12.93;;;4.33;;
14923;SDS011;7554;43.600;1.480;2022-12-26T13:54:12;10.60;;;4.83;;
14923;SDS011;7554;43.600;1.480;2022-12-26T13:59:41;9.40;;;4.40;;
14923;SDS011;7554;43.600;1.480;2022-12-26T14:02:23;14.07;;;4.70;;
14923;SDS011;7554;43.600;1.480;2022-12-26T14:05:23;13.53;;;5.43;;
14923;SDS011;7554;43.600;1.480;2022-12-26T14:07:57;7.67;;;4.73;;
14923;SDS011;7554;43.600;1.480;2022-12-26T14:10:32;11.07;;;5.13;;
14923;SDS011;7554;43.600;1.480;2022-12-26T14:13:12;12.53;;;4.80;;
14923;SDS011;7554;43.600;1.480;2022-12-26T14:15:56;8.83;;;4.43;;
14923;SDS011;7554;43.600;1.480;2022-12-26T14:18:33;11.80;;;5.00;;
14923;SDS011;7554;43.600;1.480;2022-12-26T14:21:14;12.13;;;4.90;;
14923;SDS011;7554;43.600;1.480;2022-12-26T14:23:50;8.57;;;5.60;;
14923;SDS011;7554;43.600;1.480;2022-12-26T14:26:26;7.37;;;5.00;;
14923;SDS011;7554;43.600;1.480;2022-12-26T14:29:10;11.73;;;5.67;;
14923;SDS011;7554;43.600;1.480;2022-12-26T14:31:49;11.30;;;5.27;;
14923;SDS011;7554;43.600;1.480;2022-12-26T14:34:39;11.43;;;5.73;;
14923;SDS011;7554;43.600;1.480;2022-12-26T14:37:17;11.63;;;5.80;;
14923;SDS011;7554;43.600;1.480;2022-12-26T14:39:54;11.37;;;5.20;;
14923;SDS011;7554;43.600;1.480;2022-12-26T14:45:40;26.93;;;8.23;;
14923;SDS011;7554;43.600;1.480;2022-12-26T14:56:57;12.07;;;4.87;;
14923;SDS011;7554;43.600;1.480;2022-12-26T14:59:26;12.90;;;5.73;;
14923;SDS011;7554;43.600;1.480;2022-12-26T15:02:00;10.57;;;6.50;;
14923;SDS011;7554;43.600;1.480;2022-12-26T15:07:37;12.83;;;5.50;;
14923;SDS011;7554;43.600;1.480;2022-12-26T15:16:38;10.27;;;4.73;;
14923;SDS011;7554;43.600;1.480;2022-12-26T15:25:17;11.40;;;5.40;;
14923;SDS011;7554;43.600;1.480;2022-12-26T15:31:17;25.77;;;16.90;;
14923;SDS011;7554;43.600;1.480;2022-12-26T15:33:55;32.10;;;20.00;;
14923;SDS011;7554;43.600;1.480;2022-12-26T15:36:28;19.23;;;13.33;;
14923;SDS011;7554;43.600;1.480;2022-12-26T15:39:02;16.70;;;10.00;;
14923;SDS011;7554;43.600;1.480;2022-12-26T15:41:43;15.53;;;9.90;;
14923;SDS011;7554;43.600;1.480;2022-12-26T15:44:17;19.17;;;10.47;;
14923;SDS011;7554;43.600;1.480;2022-12-26T15:46:51;14.10;;;8.20;;
14923;SDS011;7554;43.600;1.480;2022-12-26T15:49:30;14.17;;;7.20;;
14923;SDS011;7554;43.600;1.480;2022-12-26T15:52:17;13.33;;;7.83;;
14923;SDS011;7554;43.600;1.480;2022-12-26T15:54:59;12.97;;;6.37;;
14923;SDS011;7554;43.600;1.480;2022-12-26T15:57:49;11.07;;;6.23;;
14923;SDS011;7554;43.600;1.480;2022-12-26T16:00:23;19.30;;;11.57;;
14923;SDS011;7554;43.600;1.480;2022-12-26T16:02:58;14.73;;;8.57;;
14923;SDS011;7554;43.600;1.480;2022-12-26T16:05:51;11.77;;;7.47;;
14923;SDS011;7554;43.600;1.480;2022-12-26T16:11:21;12.30;;;6.60;;
14923;SDS011;7554;43.600;1.480;2022-12-26T16:13:53;12.87;;;6.60;;
14923;SDS011;7554;43.600;1.480;2022-12-26T16:16:24;13.30;;;6.90;;
14923;SDS011;7554;43.600;1.480;2022-12-26T16:18:53;18.97;;;8.53;;
14923;SDS011;7554;43.600;1.480;2022-12-26T16:21:21;13.53;;;6.90;;
14923;SDS011;7554;43.600;1.480;2022-12-26T16:24:09;19.13;;;9.63;;
14923;SDS011;7554;43.600;1.480;2022-12-26T16:26:39;14.27;;;7.17;;
14923;SDS011;7554;43.600;1.480;2022-12-26T16:29:12;16.40;;;7.43;;
14923;SDS011;7554;43.600;1.480;2022-12-26T16:31:42;18.00;;;8.23;;